sensor_id;sensor_type;location;lat;lon;timestamp;P1;durP1;ratioP1;P2;durP2;ratioP2
2488;SDS011;1255;48.716;9.124;2023-03-07T00:01:20;8.98;;;6.25;;
2488;SDS011;1255;48.716;9.124;2023-03-07T00:03:47;6.70;;;5.68;;
2488;SDS011;1255;48.716;9.124;2023-03-07T00:06:15;7.75;;;4.55;;
2488;SDS011;1255;48.716;9.124;2023-03-07T00:08:42;7.30;;;4.97;;
2488;SDS011;1255;48.716;9.124;2023-03-07T00:11:09;6.43;;;4.68;;
2488;SDS011;1255;48.716;9.124;2023-03-07T00:13:36;7.80;;;4.57;;
2488;SDS011;1255;48.716;9.124;2023-03-07T00:16:04;9.38;;;4.95;;
2488;SDS011;1255;48.716;9.124;2023-03-07T00:18:32;6.18;;;3.38;;
2488;SDS011;1255;48.716;9.124;2023-03-07T00:20:59;5.30;;;4.50;;
2488;SDS011;1255;48.716;9.124;2023-03-07T00:23:31;8.18;;;4.30;;
2488;SDS011;1255;48.716;9.124;2023-03-07T00:25:59;6.28;;;5.28;;
2488;SDS011;1255;48.716;9.124;2023-03-07T00:28:28;10.02;;;5.07;;
2488;SDS011;1255;48.716;9.124;2023-03-07T00:30:58;10.98;;;5.70;;
2488;SDS011;1255;48.716;9.124;2023-03-07T00:33:25;8.85;;;4.70;;
2488;SDS011;1255;48.716;9.124;2023-03-07T00:35:55;6.45;;;4.90;;
2488;SDS011;1255;48.716;9.124;2023-03-07T00:38:23;8.13;;;4.80;;
2488;SDS011;1255;48.716;9.124;2023-03-07T00:40:58;7.90;;;5.70;;
2488;SDS011;1255;48.716;9.124;2023-03-07T00:43:26;6.93;;;4.97;;
2488;SDS011;1255;48.716;9.124;2023-03-07T00:45:53;7.35;;;4.93;;
2488;SDS011;1255;48.716;9.124;2023-03-07T00:48:21;7.75;;;4.30;;
2488;SDS011;1255;48.716;9.124;2023-03-07T00:50:48;6.85;;;4.50;;
2488;SDS011;1255;48.716;9.124;2023-03-07T00:53:16;6.75;;;5.20;;
2488;SDS011;1255;48.716;9.124;2023-03-07T00:55:51;5.97;;;4.45;;
2488;SDS011;1255;48.716;9.124;2023-03-07T00:58:21;8.45;;;5.45;;
2488;SDS011;1255;48.716;9.124;2023-03-07T01:00:47;12.35;;;5.43;;
2488;SDS011;1255;48.716;9.124;2023-03-07T01:03:14;4.22;;;3.80;;
2488;SDS011;1255;48.716;9.124;2023-03-07T01:05:41;7.35;;;4.75;;
2488;SDS011;1255;48.716;9.124;2023-03-07T01:08:08;6.63;;;3.72;;
2488;SDS011;1255;48.716;9.124;2023-03-07T01:10:34;8.18;;;5.70;;
2488;SDS011;1255;48.716;9.124;2023-03-07T01:13:02;7.82;;;5.45;;
2488;SDS011;1255;48.716;9.124;2023-03-07T01:15:31;5.20;;;3.80;;
2488;SDS011;1255;48.716;9.124;2023-03-07T01:17:58;4.95;;;4.03;;
2488;SDS011;1255;48.716;9.124;2023-03-07T01:20:25;6.13;;;4.53;;
2488;SDS011;1255;48.716;9.124;2023-03-07T01:22:52;7.30;;;4.18;;
2488;SDS011;1255;48.716;9.124;2023-03-07T01:25:18;8.68;;;5.38;;
2488;SDS011;1255;48.716;9.124;2023-03-07T01:27:45;5.47;;;4.72;;
2488;SDS011;1255;48.716;9.124;2023-03-07T01:30:12;9.90;;;5.43;;
2488;SDS011;1255;48.716;9.124;2023-03-07T01:32:40;5.43;;;3.22;;
2488;SDS011;1255;48.716;9.124;2023-03-07T01:35:07;6.65;;;4.70;;
2488;SDS011;1255;48.716;9.124;2023-03-07T01:37:34;9.05;;;4.93;;
2488;SDS011;1255;48.716;9.124;2023-03-07T01:40:01;4.35;;;3.95;;
2488;SDS011;1255;48.716;9.124;2023-03-07T01:42:29;5.90;;;4.10;;
2488;SDS011;1255;48.716;9.124;2023-03-07T01:44:57;8.60;;;4.78;;
2488;SDS011;1255;48.716;9.124;2023-03-07T01:47:28;8.25;;;4.97;;
2488;SDS011;1255;48.716;9.124;2023-03-07T01:49:57;8.40;;;5.25;;
2488;SDS011;1255;48.716;9.124;2023-03-07T01:52:28;9.23;;;4.65;;
2488;SDS011;1255;48.716;9.124;2023-03-07T01:54:58;7.07;;;4.25;;
2488;SDS011;1255;48.716;9.124;2023-03-07T01:57:29;5.75;;;4.05;;
2488;SDS011;1255;48.716;9.124;2023-03-07T01:59:59;8.27;;;4.22;;
2488;SDS011;1255;48.716;9.124;2023-03-07T02:02:30;6.35;;;4.90;;
2488;SDS011;1255;48.716;9.124;2023-03-07T02:04:59;6.95;;;4.55;;
2488;SDS011;1255;48.716;9.124;2023-03-07T02:07:32;6.85;;;4.93;;
2488;SDS011;1255;48.716;9.124;2023-03-07T02:10:02;9.30;;;5.20;;
2488;SDS011;1255;48.716;9.124;2023-03-07T02:12:30;4.93;;;4.05;;
2488;SDS011;1255;48.716;9.124;2023-03-07T02:14:57;7.55;;;5.03;;
2488;SDS011;1255;48.716;9.124;2023-03-07T02:17:24;5.25;;;3.92;;
2488;SDS011;1255;48.716;9.124;2023-03-07T02:19:53;9.90;;;4.38;;
2488;SDS011;1255;48.716;9.124;2023-03-07T02:22:29;5.50;;;4.18;;
2488;SDS011;1255;48.716;9.124;2023-03-07T02:24:57;9.85;;;5.22;;
2488;SDS011;1255;48.716;9.124;2023-03-07T02:27:29;8.02;;;5.07;;
2488;SDS011;1255;48.716;9.124;2023-03-07T02:29:58;9.45;;;4.88;;
2488;SDS011;1255;48.716;9.124;2023-03-07T02:32:25;9.07;;;5.30;;
2488;SDS011;1255;48.716;9.124;2023-03-07T02:34:52;5.70;;;4.60;;
2488;SDS011;1255;48.716;9.124;2023-03-07T02:37:19;8.43;;;5.15;;
2488;SDS011;1255;48.716;9.124;2023-03-07T02:39:50;8.43;;;5.15;;
2488;SDS011;1255;48.716;9.124;2023-03-07T02:42:19;9.73;;;5.75;;
2488;SDS011;1255;48.716;9.124;2023-03-07T02:44:55;7.47;;;5.20;;
2488;SDS011;1255;48.716;9.124;2023-03-07T02:47:23;8.65;;;4.80;;
2488;SDS011;1255;48.716;9.124;2023-03-07T02:49:51;6.78;;;3.85;;
2488;SDS011;1255;48.716;9.124;2023-03-07T02:52:17;8.55;;;4.90;;
2488;SDS011;1255;48.716;9.124;2023-03-07T02:54:45;8.77;;;5.07;;
2488;SDS011;1255;48.716;9.124;2023-03-07T02:57:12;8.68;;;5.22;;
2488;SDS011;1255;48.716;9.124;2023-03-07T02:59:39;9.13;;;4.60;;
2488;SDS011;1255;48.716;9.124;2023-03-07T03:02:07;6.03;;;4.20;;
2488;SDS011;1255;48.716;9.124;2023-03-07T03:04:34;7.95;;;5.07;;
2488;SDS011;1255;48.716;9.124;2023-03-07T03:07:01;7.90;;;4.55;;
2488;SDS011;1255;48.716;9.124;2023-03-07T03:09:27;6.13;;;5.13;;
2488;SDS011;1255;48.716;9.124;2023-03-07T03:11:55;7.68;;;5.38;;
2488;SDS011;1255;48.716;9.124;2023-03-07T03:14:22;7.28;;;4.55;;
2488;SDS011;1255;48.716;9.124;2023-03-07T03:16:50;8.00;;;4.53;;
2488;SDS011;1255;48.716;9.124;2023-03-07T03:19:18;5.78;;;4.57;;
2488;SDS011;1255;48.716;9.124;2023-03-07T03:21:46;7.65;;;5.25;;
2488;SDS011;1255;48.716;9.124;2023-03-07T03:24:12;11.18;;;4.35;;
2488;SDS011;1255;48.716;9.124;2023-03-07T03:26:39;5.45;;;4.22;;
2488;SDS011;1255;48.716;9.124;2023-03-07T03:29:06;6.45;;;4.05;;
2488;SDS011;1255;48.716;9.124;2023-03-07T03:31:33;6.70;;;4.57;;
2488;SDS011;1255;48.716;9.124;2023-03-07T03:34:00;7.45;;;4.68;;
2488;SDS011;1255;48.716;9.124;2023-03-07T03:36:30;10.02;;;5.72;;
2488;SDS011;1255;48.716;9.124;2023-03-07T03:38:57;7.95;;;5.13;;
2488;SDS011;1255;48.716;9.124;2023-03-07T03:41:24;8.10;;;5.32;;
2488;SDS011;1255;48.716;9.124;2023-03-07T03:43:51;6.25;;;4.57;;
2488;SDS011;1255;48.716;9.124;2023-03-07T03:46:18;11.23;;;5.25;;
2488;SDS011;1255;48.716;9.124;2023-03-07T03:48:49;6.80;;;4.95;;
2488;SDS011;1255;48.716;9.124;2023-03-07T03:51:17;9.07;;;5.57;;
2488;SDS011;1255;48.716;9.124;2023-03-07T03:53:45;7.57;;;5.80;;
2488;SDS011;1255;48.716;9.124;2023-03-07T03:56:12;7.07;;;5.13;;
2488;SDS011;1255;48.716;9.124;2023-03-07T03:58:40;8.30;;;4.88;;
2488;SDS011;1255;48.716;9.124;2023-03-07T04:01:08;6.57;;;4.60;;
2488;SDS011;1255;48.716;9.124;2023-03-07T04:03:37;15.52;;;5.53;;
2488;SDS011;1255;48.716;9.124;2023-03-07T04:06:06;10.13;;;5.43;;
2488;SDS011;1255;48.716;9.124;2023-03-07T04:08:35;8.05;;;5.80;;
2488;SDS011;1255;48.716;9.124;2023-03-07T04:11:04;8.00;;;4.60;;
2488;SDS011;1255;48.716;9.124;2023-03-07T04:16:05;9.23;;;4.60;;
2488;SDS011;1255;48.716;9.124;2023-03-07T04:18:32;7.07;;;5.10;;
2488;SDS011;1255;48.716;9.124;2023-03-07T04:21:01;10.25;;;5.80;;
2488;SDS011;1255;48.716;9.124;2023-03-07T04:23:29;10.38;;;5.60;;
2488;SDS011;1255;48.716;9.124;2023-03-07T04:28:25;8.70;;;5.82;;
2488;SDS011;1255;48.716;9.124;2023-03-07T04:30:53;7.00;;;4.63;;
2488;SDS011;1255;48.716;9.124;2023-03-07T04:33:21;9.70;;;4.82;;
2488;SDS011;1255;48.716;9.124;2023-03-07T04:35:48;8.90;;;5.88;;
2488;SDS011;1255;48.716;9.124;2023-03-07T04:38:15;7.22;;;5.47;;
2488;SDS011;1255;48.716;9.124;2023-03-07T04:40:41;8.27;;;5.47;;
2488;SDS011;1255;48.716;9.124;2023-03-07T04:43:08;7.28;;;4.88;;
2488;SDS011;1255;48.716;9.124;2023-03-07T04:45:36;5.65;;;4.28;;
2488;SDS011;1255;48.716;9.124;2023-03-07T04:48:03;7.20;;;4.93;;
2488;SDS011;1255;48.716;9.124;2023-03-07T04:50:30;10.15;;;5.05;;
2488;SDS011;1255;48.716;9.124;2023-03-07T04:52:57;8.48;;;5.32;;
2488;SDS011;1255;48.716;9.124;2023-03-07T04:55:24;6.70;;;4.25;;
2488;SDS011;1255;48.716;9.124;2023-03-07T04:57:53;8.25;;;5.90;;
2488;SDS011;1255;48.716;9.124;2023-03-07T05:00:22;8.65;;;5.95;;
2488;SDS011;1255;48.716;9.124;2023-03-07T05:02:50;10.90;;;5.57;;
2488;SDS011;1255;48.716;9.124;2023-03-07T05:05:17;9.48;;;6.03;;
2488;SDS011;1255;48.716;9.124;2023-03-07T05:07:44;13.90;;;5.75;;
2488;SDS011;1255;48.716;9.124;2023-03-07T05:10:10;15.77;;;6.00;;
2488;SDS011;1255;48.716;9.124;2023-03-07T05:12:37;9.93;;;5.55;;
2488;SDS011;1255;48.716;9.124;2023-03-07T05:15:05;8.95;;;5.45;;
2488;SDS011;1255;48.716;9.124;2023-03-07T05:17:32;5.93;;;4.68;;
2488;SDS011;1255;48.716;9.124;2023-03-07T05:20:00;12.63;;;5.90;;
2488;SDS011;1255;48.716;9.124;2023-03-07T05:22:28;7.32;;;4.43;;
2488;SDS011;1255;48.716;9.124;2023-03-07T05:24:54;9.45;;;5.40;;
2488;SDS011;1255;48.716;9.124;2023-03-07T05:27:22;8.55;;;5.30;;
2488;SDS011;1255;48.716;9.124;2023-03-07T05:29:49;7.60;;;5.15;;
2488;SDS011;1255;48.716;9.124;2023-03-07T05:32:15;9.88;;;5.40;;
2488;SDS011;1255;48.716;9.124;2023-03-07T05:34:42;7.53;;;4.50;;
2488;SDS011;1255;48.716;9.124;2023-03-07T05:37:12;7.78;;;5.25;;
2488;SDS011;1255;48.716;9.124;2023-03-07T05:39:39;4.80;;;3.80;;
2488;SDS011;1255;48.716;9.124;2023-03-07T05:42:06;8.20;;;5.15;;
2488;SDS011;1255;48.716;9.124;2023-03-07T05:44:33;7.35;;;4.90;;
2488;SDS011;1255;48.716;9.124;2023-03-07T05:47:00;7.60;;;4.25;;
2488;SDS011;1255;48.716;9.124;2023-03-07T05:49:27;7.68;;;4.70;;
2488;SDS011;1255;48.716;9.124;2023-03-07T05:51:53;6.43;;;4.32;;
2488;SDS011;1255;48.716;9.124;2023-03-07T05:54:21;7.50;;;4.85;;
2488;SDS011;1255;48.716;9.124;2023-03-07T05:56:48;5.47;;;4.05;;
2488;SDS011;1255;48.716;9.124;2023-03-07T05:59:15;8.43;;;4.80;;
2488;SDS011;1255;48.716;9.124;2023-03-07T06:01:42;7.05;;;5.03;;
2488;SDS011;1255;48.716;9.124;2023-03-07T06:04:08;9.00;;;4.53;;
2488;SDS011;1255;48.716;9.124;2023-03-07T06:06:35;8.20;;;4.70;;
2488;SDS011;1255;48.716;9.124;2023-03-07T06:09:02;7.82;;;4.63;;
2488;SDS011;1255;48.716;9.124;2023-03-07T06:11:31;4.47;;;3.55;;
2488;SDS011;1255;48.716;9.124;2023-03-07T06:13:57;6.82;;;4.25;;
2488;SDS011;1255;48.716;9.124;2023-03-07T06:16:24;9.25;;;4.20;;
2488;SDS011;1255;48.716;9.124;2023-03-07T06:18:51;7.82;;;4.50;;
2488;SDS011;1255;48.716;9.124;2023-03-07T06:21:17;10.43;;;5.65;;
2488;SDS011;1255;48.716;9.124;2023-03-07T06:23:44;6.22;;;4.40;;
2488;SDS011;1255;48.716;9.124;2023-03-07T06:26:11;7.55;;;4.95;;
2488;SDS011;1255;48.716;9.124;2023-03-07T06:28:40;8.18;;;4.88;;
2488;SDS011;1255;48.716;9.124;2023-03-07T06:31:08;9.05;;;5.68;;
2488;SDS011;1255;48.716;9.124;2023-03-07T06:33:35;10.65;;;5.60;;
2488;SDS011;1255;48.716;9.124;2023-03-07T06:36:03;7.72;;;4.38;;
2488;SDS011;1255;48.716;9.124;2023-03-07T06:38:31;7.50;;;4.80;;
2488;SDS011;1255;48.716;9.124;2023-03-07T06:40:58;9.10;;;4.45;;
2488;SDS011;1255;48.716;9.124;2023-03-07T06:43:25;7.40;;;4.68;;
2488;SDS011;1255;48.716;9.124;2023-03-07T06:45:53;12.35;;;5.07;;
2488;SDS011;1255;48.716;9.124;2023-03-07T06:48:20;9.43;;;5.38;;
2488;SDS011;1255;48.716;9.124;2023-03-07T06:50:46;9.07;;;4.25;;
2488;SDS011;1255;48.716;9.124;2023-03-07T06:53:13;6.18;;;5.03;;
2488;SDS011;1255;48.716;9.124;2023-03-07T06:55:40;8.43;;;4.68;;
2488;SDS011;1255;48.716;9.124;2023-03-07T06:58:06;8.73;;;4.85;;
2488;SDS011;1255;48.716;9.124;2023-03-07T07:00:33;5.43;;;4.07;;
2488;SDS011;1255;48.716;9.124;2023-03-07T07:03:01;9.57;;;5.07;;
2488;SDS011;1255;48.716;9.124;2023-03-07T07:05:28;8.27;;;5.00;;
2488;SDS011;1255;48.716;9.124;2023-03-07T07:07:55;7.78;;;5.10;;
2488;SDS011;1255;48.716;9.124;2023-03-07T07:10:22;5.50;;;4.03;;
2488;SDS011;1255;48.716;9.124;2023-03-07T07:12:48;6.68;;;4.90;;
2488;SDS011;1255;48.716;9.124;2023-03-07T07:15:18;10.95;;;5.45;;
2488;SDS011;1255;48.716;9.124;2023-03-07T07:17:45;8.02;;;4.88;;
2488;SDS011;1255;48.716;9.124;2023-03-07T07:20:13;5.97;;;4.13;;
2488;SDS011;1255;48.716;9.124;2023-03-07T07:22:40;5.55;;;4.07;;
2488;SDS011;1255;48.716;9.124;2023-03-07T07:25:07;8.00;;;4.85;;
2488;SDS011;1255;48.716;9.124;2023-03-07T07:27:34;6.80;;;4.28;;
2488;SDS011;1255;48.716;9.124;2023-03-07T07:30:01;6.93;;;4.70;;
2488;SDS011;1255;48.716;9.124;2023-03-07T07:32:28;6.35;;;4.55;;
2488;SDS011;1255;48.716;9.124;2023-03-07T07:34:55;4.63;;;3.60;;
2488;SDS011;1255;48.716;9.124;2023-03-07T07:37:23;9.77;;;4.47;;
2488;SDS011;1255;48.716;9.124;2023-03-07T07:39:50;7.55;;;4.55;;
2488;SDS011;1255;48.716;9.124;2023-03-07T07:42:17;7.30;;;4.57;;
2488;SDS011;1255;48.716;9.124;2023-03-07T07:44:44;6.60;;;4.22;;
2488;SDS011;1255;48.716;9.124;2023-03-07T07:47:12;10.93;;;5.65;;
2488;SDS011;1255;48.716;9.124;2023-03-07T07:49:39;8.27;;;4.30;;
2488;SDS011;1255;48.716;9.124;2023-03-07T07:52:05;5.68;;;3.63;;
2488;SDS011;1255;48.716;9.124;2023-03-07T07:54:34;6.97;;;4.43;;
2488;SDS011;1255;48.716;9.124;2023-03-07T07:57:01;6.85;;;4.20;;
2488;SDS011;1255;48.716;9.124;2023-03-07T07:59:28;5.75;;;4.07;;
2488;SDS011;1255;48.716;9.124;2023-03-07T08:01:55;7.05;;;4.20;;
2488;SDS011;1255;48.716;9.124;2023-03-07T08:04:22;5.85;;;4.60;;
2488;SDS011;1255;48.716;9.124;2023-03-07T08:06:49;6.57;;;4.90;;
2488;SDS011;1255;48.716;9.124;2023-03-07T08:09:16;5.60;;;4.80;;
2488;SDS011;1255;48.716;9.124;2023-03-07T08:11:44;7.18;;;5.00;;
2488;SDS011;1255;48.716;9.124;2023-03-07T08:14:11;6.65;;;4.85;;
2488;SDS011;1255;48.716;9.124;2023-03-07T08:16:37;6.10;;;4.38;;
2488;SDS011;1255;48.716;9.124;2023-03-07T08:19:04;9.57;;;4.63;;
2488;SDS011;1255;48.716;9.124;2023-03-07T08:21:31;7.88;;;5.13;;
2488;SDS011;1255;48.716;9.124;2023-03-07T08:23:57;11.50;;;7.10;;
2488;SDS011;1255;48.716;9.124;2023-03-07T08:26:24;6.43;;;4.65;;
2488;SDS011;1255;48.716;9.124;2023-03-07T08:28:52;4.40;;;4.00;;
2488;SDS011;1255;48.716;9.124;2023-03-07T08:31:20;8.13;;;4.57;;
2488;SDS011;1255;48.716;9.124;2023-03-07T08:33:49;6.07;;;4.32;;
2488;SDS011;1255;48.716;9.124;2023-03-07T08:36:16;6.85;;;4.78;;
2488;SDS011;1255;48.716;9.124;2023-03-07T08:38:46;5.57;;;4.53;;
2488;SDS011;1255;48.716;9.124;2023-03-07T08:41:14;5.32;;;4.13;;
2488;SDS011;1255;48.716;9.124;2023-03-07T08:43:41;6.60;;;4.07;;
2488;SDS011;1255;48.716;9.124;2023-03-07T08:46:09;7.10;;;4.18;;
2488;SDS011;1255;48.716;9.124;2023-03-07T08:48:36;6.03;;;4.80;;
2488;SDS011;1255;48.716;9.124;2023-03-07T08:51:03;6.45;;;5.00;;
2488;SDS011;1255;48.716;9.124;2023-03-07T08:53:31;9.50;;;4.93;;
2488;SDS011;1255;48.716;9.124;2023-03-07T08:55:58;5.30;;;3.90;;
2488;SDS011;1255;48.716;9.124;2023-03-07T08:58:25;6.35;;;4.05;;
2488;SDS011;1255;48.716;9.124;2023-03-07T09:00:52;8.02;;;4.70;;
2488;SDS011;1255;48.716;9.124;2023-03-07T09:03:20;5.72;;;4.57;;
2488;SDS011;1255;48.716;9.124;2023-03-07T09:05:46;7.57;;;5.20;;
2488;SDS011;1255;48.716;9.124;2023-03-07T09:08:13;7.45;;;5.05;;
2488;SDS011;1255;48.716;9.124;2023-03-07T09:10:40;3.50;;;3.17;;
2488;SDS011;1255;48.716;9.124;2023-03-07T09:13:06;6.43;;;3.92;;
2488;SDS011;1255;48.716;9.124;2023-03-07T09:15:33;4.60;;;3.55;;
2488;SDS011;1255;48.716;9.124;2023-03-07T09:18:03;5.40;;;3.83;;
2488;SDS011;1255;48.716;9.124;2023-03-07T09:20:31;4.88;;;3.90;;
2488;SDS011;1255;48.716;9.124;2023-03-07T09:22:57;7.15;;;4.78;;
2488;SDS011;1255;48.716;9.124;2023-03-07T09:25:24;5.45;;;4.10;;
2488;SDS011;1255;48.716;9.124;2023-03-07T09:27:51;5.28;;;3.83;;
2488;SDS011;1255;48.716;9.124;2023-03-07T09:30:18;6.32;;;3.47;;
2488;SDS011;1255;48.716;9.124;2023-03-07T09:32:46;5.93;;;3.63;;
2488;SDS011;1255;48.716;9.124;2023-03-07T09:35:13;3.85;;;3.40;;
2488;SDS011;1255;48.716;9.124;2023-03-07T09:37:41;5.18;;;3.42;;
2488;SDS011;1255;48.716;9.124;2023-03-07T09:40:09;5.25;;;3.90;;
2488;SDS011;1255;48.716;9.124;2023-03-07T09:42:43;10.75;;;4.60;;
2488;SDS011;1255;48.716;9.124;2023-03-07T09:45:20;5.65;;;3.63;;
2488;SDS011;1255;48.716;9.124;2023-03-07T09:47:57;4.25;;;3.15;;
2488;SDS011;1255;48.716;9.124;2023-03-07T09:50:43;6.03;;;3.90;;
2488;SDS011;1255;48.716;9.124;2023-03-07T09:53:17;5.07;;;4.30;;
2488;SDS011;1255;48.716;9.124;2023-03-07T09:55:47;6.63;;;4.15;;
2488;SDS011;1255;48.716;9.124;2023-03-07T09:58:17;5.70;;;3.92;;
2488;SDS011;1255;48.716;9.124;2023-03-07T10:00:49;4.93;;;3.70;;
2488;SDS011;1255;48.716;9.124;2023-03-07T10:03:23;6.72;;;3.63;;
2488;SDS011;1255;48.716;9.124;2023-03-07T10:05:58;4.80;;;3.83;;
2488;SDS011;1255;48.716;9.124;2023-03-07T10:08:30;5.00;;;4.25;;
2488;SDS011;1255;48.716;9.124;2023-03-07T10:11:00;6.22;;;3.78;;
2488;SDS011;1255;48.716;9.124;2023-03-07T10:13:41;6.00;;;3.90;;
2488;SDS011;1255;48.716;9.124;2023-03-07T10:16:09;9.13;;;4.50;;
2488;SDS011;1255;48.716;9.124;2023-03-07T10:18:46;6.93;;;4.45;;
2488;SDS011;1255;48.716;9.124;2023-03-07T10:21:36;6.30;;;3.92;;
2488;SDS011;1255;48.716;9.124;2023-03-07T10:24:16;11.07;;;4.28;;
2488;SDS011;1255;48.716;9.124;2023-03-07T10:26:54;5.32;;;4.05;;
2488;SDS011;1255;48.716;9.124;2023-03-07T10:29:26;6.22;;;4.15;;
2488;SDS011;1255;48.716;9.124;2023-03-07T10:31:58;6.47;;;4.03;;
2488;SDS011;1255;48.716;9.124;2023-03-07T10:34:36;5.95;;;4.43;;
2488;SDS011;1255;48.716;9.124;2023-03-07T10:37:07;7.28;;;4.18;;
2488;SDS011;1255;48.716;9.124;2023-03-07T10:39:42;6.63;;;4.25;;
2488;SDS011;1255;48.716;9.124;2023-03-07T10:42:14;8.05;;;4.03;;
2488;SDS011;1255;48.716;9.124;2023-03-07T10:44:44;7.57;;;3.88;;
2488;SDS011;1255;48.716;9.124;2023-03-07T10:47:14;7.00;;;3.65;;
2488;SDS011;1255;48.716;9.124;2023-03-07T10:49:45;4.63;;;3.67;;
2488;SDS011;1255;48.716;9.124;2023-03-07T10:52:16;4.00;;;3.60;;
2488;SDS011;1255;48.716;9.124;2023-03-07T10:54:54;6.28;;;4.55;;
2488;SDS011;1255;48.716;9.124;2023-03-07T10:57:37;5.65;;;3.95;;
2488;SDS011;1255;48.716;9.124;2023-03-07T11:00:11;4.78;;;3.10;;
2488;SDS011;1255;48.716;9.124;2023-03-07T11:02:41;3.22;;;2.85;;
2488;SDS011;1255;48.716;9.124;2023-03-07T11:05:17;8.65;;;3.53;;
2488;SDS011;1255;48.716;9.124;2023-03-07T11:07:51;6.40;;;3.97;;
2488;SDS011;1255;48.716;9.124;2023-03-07T11:10:24;5.30;;;4.00;;
2488;SDS011;1255;48.716;9.124;2023-03-07T11:13:05;5.95;;;3.47;;
2488;SDS011;1255;48.716;9.124;2023-03-07T11:15:32;4.15;;;3.53;;
2488;SDS011;1255;48.716;9.124;2023-03-07T11:17:59;6.38;;;4.28;;
2488;SDS011;1255;48.716;9.124;2023-03-07T11:20:26;5.60;;;3.83;;
2488;SDS011;1255;48.716;9.124;2023-03-07T11:23:11;6.47;;;3.92;;
2488;SDS011;1255;48.716;9.124;2023-03-07T11:25:41;4.63;;;3.65;;
2488;SDS011;1255;48.716;9.124;2023-03-07T11:28:22;5.93;;;3.88;;
2488;SDS011;1255;48.716;9.124;2023-03-07T11:30:51;5.28;;;3.75;;
2488;SDS011;1255;48.716;9.124;2023-03-07T11:33:23;10.75;;;4.45;;
2488;SDS011;1255;48.716;9.124;2023-03-07T11:35:57;4.72;;;3.05;;
2488;SDS011;1255;48.716;9.124;2023-03-07T11:38:39;6.47;;;4.30;;
2488;SDS011;1255;48.716;9.124;2023-03-07T11:41:18;8.00;;;4.03;;
2488;SDS011;1255;48.716;9.124;2023-03-07T11:43:53;5.40;;;4.00;;
2488;SDS011;1255;48.716;9.124;2023-03-07T11:46:30;7.57;;;4.50;;
2488;SDS011;1255;48.716;9.124;2023-03-07T11:49:10;5.38;;;4.10;;
2488;SDS011;1255;48.716;9.124;2023-03-07T11:51:49;3.50;;;3.05;;
2488;SDS011;1255;48.716;9.124;2023-03-07T11:54:26;13.77;;;3.53;;
2488;SDS011;1255;48.716;9.124;2023-03-07T11:57:01;4.57;;;3.10;;
2488;SDS011;1255;48.716;9.124;2023-03-07T11:59:47;4.65;;;3.40;;
2488;SDS011;1255;48.716;9.124;2023-03-07T12:02:28;5.85;;;3.58;;
2488;SDS011;1255;48.716;9.124;2023-03-07T12:08:04;5.63;;;3.70;;
2488;SDS011;1255;48.716;9.124;2023-03-07T12:10:48;5.70;;;4.32;;
2488;SDS011;1255;48.716;9.124;2023-03-07T12:13:27;6.95;;;3.65;;
2488;SDS011;1255;48.716;9.124;2023-03-07T12:16:04;7.50;;;4.30;;
2488;SDS011;1255;48.716;9.124;2023-03-07T12:18:44;7.32;;;4.55;;
2488;SDS011;1255;48.716;9.124;2023-03-07T12:21:29;5.80;;;3.92;;
2488;SDS011;1255;48.716;9.124;2023-03-07T12:24:17;5.00;;;3.85;;
2488;SDS011;1255;48.716;9.124;2023-03-07T12:26:49;5.65;;;4.10;;
2488;SDS011;1255;48.716;9.124;2023-03-07T12:29:25;6.15;;;4.35;;
2488;SDS011;1255;48.716;9.124;2023-03-07T12:32:01;5.47;;;3.90;;
2488;SDS011;1255;48.716;9.124;2023-03-07T12:34:33;6.25;;;3.58;;
2488;SDS011;1255;48.716;9.124;2023-03-07T12:37:03;6.28;;;4.15;;
2488;SDS011;1255;48.716;9.124;2023-03-07T12:39:35;7.55;;;4.22;;
2488;SDS011;1255;48.716;9.124;2023-03-07T12:42:12;7.82;;;3.97;;
2488;SDS011;1255;48.716;9.124;2023-03-07T12:44:44;5.40;;;3.95;;
2488;SDS011;1255;48.716;9.124;2023-03-07T12:47:15;6.30;;;3.08;;
2488;SDS011;1255;48.716;9.124;2023-03-07T12:49:50;6.13;;;4.10;;
2488;SDS011;1255;48.716;9.124;2023-03-07T12:52:24;5.50;;;3.47;;
2488;SDS011;1255;48.716;9.124;2023-03-07T12:54:57;5.90;;;4.22;;
2488;SDS011;1255;48.716;9.124;2023-03-07T12:57:27;4.95;;;3.60;;
2488;SDS011;1255;48.716;9.124;2023-03-07T13:00:02;5.20;;;3.88;;
2488;SDS011;1255;48.716;9.124;2023-03-07T13:02:32;6.75;;;3.55;;
2488;SDS011;1255;48.716;9.124;2023-03-07T13:05:11;5.25;;;3.67;;
2488;SDS011;1255;48.716;9.124;2023-03-07T13:07:43;5.10;;;3.72;;
2488;SDS011;1255;48.716;9.124;2023-03-07T13:10:13;5.88;;;3.03;;
2488;SDS011;1255;48.716;9.124;2023-03-07T13:12:43;3.80;;;3.05;;
2488;SDS011;1255;48.716;9.124;2023-03-07T13:18:09;4.60;;;2.97;;
2488;SDS011;1255;48.716;9.124;2023-03-07T13:26:57;3.72;;;3.10;;
2488;SDS011;1255;48.716;9.124;2023-03-07T13:32:54;3.25;;;2.95;;
2488;SDS011;1255;48.716;9.124;2023-03-07T13:38:30;3.75;;;2.30;;
2488;SDS011;1255;48.716;9.124;2023-03-07T13:40:58;4.28;;;3.00;;
2488;SDS011;1255;48.716;9.124;2023-03-07T13:46:29;3.85;;;2.55;;
2488;SDS011;1255;48.716;9.124;2023-03-07T13:52:22;3.33;;;3.00;;
2488;SDS011;1255;48.716;9.124;2023-03-07T13:54:55;4.10;;;3.05;;
2488;SDS011;1255;48.716;9.124;2023-03-07T13:57:24;3.20;;;2.78;;
2488;SDS011;1255;48.716;9.124;2023-03-07T13:59:58;4.55;;;3.17;;
2488;SDS011;1255;48.716;9.124;2023-03-07T14:02:26;6.20;;;3.92;;
2488;SDS011;1255;48.716;9.124;2023-03-07T14:04:53;3.75;;;3.40;;
2488;SDS011;1255;48.716;9.124;2023-03-07T14:07:24;4.25;;;3.00;;
2488;SDS011;1255;48.716;9.124;2023-03-07T14:09:52;4.35;;;3.03;;
2488;SDS011;1255;48.716;9.124;2023-03-07T14:12:24;4.35;;;2.72;;
2488;SDS011;1255;48.716;9.124;2023-03-07T14:15:02;7.00;;;3.13;;
2488;SDS011;1255;48.716;9.124;2023-03-07T14:17:45;4.57;;;2.58;;
2488;SDS011;1255;48.716;9.124;2023-03-07T14:20:22;4.10;;;2.60;;
2488;SDS011;1255;48.716;9.124;2023-03-07T14:23:03;4.63;;;3.42;;
2488;SDS011;1255;48.716;9.124;2023-03-07T14:25:40;4.45;;;2.90;;
2488;SDS011;1255;48.716;9.124;2023-03-07T14:28:17;7.55;;;2.70;;
2488;SDS011;1255;48.716;9.124;2023-03-07T14:30:51;3.42;;;3.13;;
2488;SDS011;1255;48.716;9.124;2023-03-07T14:33:19;3.85;;;3.15;;
2488;SDS011;1255;48.716;9.124;2023-03-07T14:35:46;3.20;;;2.40;;
2488;SDS011;1255;48.716;9.124;2023-03-07T14:38:17;3.35;;;2.55;;
2488;SDS011;1255;48.716;9.124;2023-03-07T14:41:01;2.83;;;2.42;;
2488;SDS011;1255;48.716;9.124;2023-03-07T14:43:42;4.00;;;2.40;;
2488;SDS011;1255;48.716;9.124;2023-03-07T14:46:21;2.92;;;2.42;;
2488;SDS011;1255;48.716;9.124;2023-03-07T14:49:02;3.25;;;2.30;;
2488;SDS011;1255;48.716;9.124;2023-03-07T14:51:37;6.00;;;2.75;;
2488;SDS011;1255;48.716;9.124;2023-03-07T14:54:12;2.42;;;2.22;;
2488;SDS011;1255;48.716;9.124;2023-03-07T14:56:40;3.05;;;2.40;;
2488;SDS011;1255;48.716;9.124;2023-03-07T14:59:07;2.60;;;2.40;;
2488;SDS011;1255;48.716;9.124;2023-03-07T15:01:37;3.92;;;2.40;;
2488;SDS011;1255;48.716;9.124;2023-03-07T15:04:07;4.82;;;3.03;;
2488;SDS011;1255;48.716;9.124;2023-03-07T15:06:51;2.90;;;2.65;;
2488;SDS011;1255;48.716;9.124;2023-03-07T15:09:20;5.32;;;2.78;;
2488;SDS011;1255;48.716;9.124;2023-03-07T15:11:48;3.08;;;2.47;;
2488;SDS011;1255;48.716;9.124;2023-03-07T15:14:22;3.42;;;3.00;;
2488;SDS011;1255;48.716;9.124;2023-03-07T15:16:56;2.80;;;2.50;;
2488;SDS011;1255;48.716;9.124;2023-03-07T15:19:28;3.33;;;2.40;;
2488;SDS011;1255;48.716;9.124;2023-03-07T15:22:00;3.20;;;2.58;;
2488;SDS011;1255;48.716;9.124;2023-03-07T15:24:33;4.22;;;2.47;;
2488;SDS011;1255;48.716;9.124;2023-03-07T15:27:02;2.97;;;2.55;;
2488;SDS011;1255;48.716;9.124;2023-03-07T15:29:31;2.30;;;2.10;;
2488;SDS011;1255;48.716;9.124;2023-03-07T15:31:59;3.40;;;2.42;;
2488;SDS011;1255;48.716;9.124;2023-03-07T15:34:28;2.92;;;2.33;;
2488;SDS011;1255;48.716;9.124;2023-03-07T15:37:11;3.03;;;2.28;;
2488;SDS011;1255;48.716;9.124;2023-03-07T15:39:54;4.13;;;2.80;;
2488;SDS011;1255;48.716;9.124;2023-03-07T15:42:22;3.78;;;2.78;;
2488;SDS011;1255;48.716;9.124;2023-03-07T15:44:52;5.07;;;3.08;;
2488;SDS011;1255;48.716;9.124;2023-03-07T15:47:19;4.05;;;3.00;;
2488;SDS011;1255;48.716;9.124;2023-03-07T15:49:47;3.65;;;2.72;;
2488;SDS011;1255;48.716;9.124;2023-03-07T15:52:20;3.47;;;2.72;;
2488;SDS011;1255;48.716;9.124;2023-03-07T15:54:52;4.20;;;2.35;;
2488;SDS011;1255;48.716;9.124;2023-03-07T15:57:21;4.07;;;3.67;;
2488;SDS011;1255;48.716;9.124;2023-03-07T15:59:50;3.63;;;2.90;;
2488;SDS011;1255;48.716;9.124;2023-03-07T16:02:36;3.45;;;2.90;;